sensor_id;sensor_type;location;lat;lon;timestamp;pressure;altitude;pressure_sealevel;temperature;humidity
56671;BME280;42545;50.054;8.306;2023-03-01T00:01:37;101122.00;;;-0.65;70.23
56671;BME280;42545;50.054;8.306;2023-03-01T00:04:04;101118.25;;;-0.69;70.19
56671;BME280;42545;50.054;8.306;2023-03-01T00:06:30;101119.53;;;-0.64;70.34
56671;BME280;42545;50.054;8.306;2023-03-01T00:08:57;101117.56;;;-0.66;70.43
56671;BME280;42545;50.054;8.306;2023-03-01T00:11:27;101132.47;;;-0.64;70.41
56671;BME280;42545;50.054;8.306;2023-03-01T00:13:57;101126.38;;;-0.64;70.44
56671;BME280;42545;50.054;8.306;2023-03-01T00:16:26;101119.16;;;-0.68;70.54
56671;BME280;42545;50.054;8.306;2023-03-01T00:18:53;101128.97;;;-0.64;70.36
56671;BME280;42545;50.054;8.306;2023-03-01T00:21:22;101126.38;;;-0.64;70.64
56671;BME280;42545;50.054;8.306;2023-03-01T00:23:50;101125.59;;;-0.63;70.54
56671;BME280;42545;50.054;8.306;2023-03-01T00:26:18;101130.78;;;-0.63;70.50
56671;BME280;42545;50.054;8.306;2023-03-01T00:28:46;101119.41;;;-0.65;70.66
56671;BME280;42545;50.054;8.306;2023-03-01T00:31:16;101125.34;;;-0.66;70.80
56671;BME280;42545;50.054;8.306;2023-03-01T00:33:44;101116.56;;;-0.68;70.52
56671;BME280;42545;50.054;8.306;2023-03-01T00:36:12;101119.16;;;-0.68;70.89
56671;BME280;42545;50.054;8.306;2023-03-01T00:38:44;101110.34;;;-0.70;71.04
56671;BME280;42545;50.054;8.306;2023-03-01T00:41:13;101114.75;;;-0.69;71.24
56671;BME280;42545;50.054;8.306;2023-03-01T00:43:40;101097.94;;;-0.74;71.25
56671;BME280;42545;50.054;8.306;2023-03-01T00:46:10;101103.59;;;-0.68;71.16
56671;BME280;42545;50.054;8.306;2023-03-01T00:48:37;101102.81;;;-0.67;71.07
56671;BME280;42545;50.054;8.306;2023-03-01T00:51:06;101093.22;;;-0.68;71.16
56671;BME280;42545;50.054;8.306;2023-03-01T00:53:34;101097.38;;;-0.70;71.05
56671;BME280;42545;50.054;8.306;2023-03-01T00:56:01;101093.78;;;-0.72;71.30
56671;BME280;42545;50.054;8.306;2023-03-01T00:58:28;101092.50;;;-0.78;71.23
56671;BME280;42545;50.054;8.306;2023-03-01T01:00:55;101093.53;;;-0.75;71.25
56671;BME280;42545;50.054;8.306;2023-03-01T01:03:23;101086.56;;;-0.76;71.44
56671;BME280;42545;50.054;8.306;2023-03-01T01:05:51;101084.63;;;-0.79;71.08
56671;BME280;42545;50.054;8.306;2023-03-01T01:08:18;101084.28;;;-0.84;71.59
56671;BME280;42545;50.054;8.306;2023-03-01T01:10:45;101090.22;;;-0.85;71.63
56671;BME280;42545;50.054;8.306;2023-03-01T01:13:12;101083.91;;;-0.88;71.76
56671;BME280;42545;50.054;8.306;2023-03-01T01:15:39;101080.84;;;-0.94;71.81
56671;BME280;42545;50.054;8.306;2023-03-01T01:18:06;101090.81;;;-0.99;72.38
56671;BME280;42545;50.054;8.306;2023-03-01T01:20:35;101083.59;;;-1.03;72.30
56671;BME280;42545;50.054;8.306;2023-03-01T01:23:05;101073.53;;;-1.10;72.56
56671;BME280;42545;50.054;8.306;2023-03-01T01:25:34;101074.44;;;-1.10;72.67
56671;BME280;42545;50.054;8.306;2023-03-01T01:28:01;101071.50;;;-1.14;72.74
56671;BME280;42545;50.054;8.306;2023-03-01T01:30:28;101061.91;;;-1.16;73.46
56671;BME280;42545;50.054;8.306;2023-03-01T01:32:55;101057.50;;;-1.17;73.45
56671;BME280;42545;50.054;8.306;2023-03-01T01:35:21;101057.38;;;-1.18;73.75
56671;BME280;42545;50.054;8.306;2023-03-01T01:37:50;101053.34;;;-1.14;73.61
56671;BME280;42545;50.054;8.306;2023-03-01T01:40:17;101039.59;;;-1.13;73.68
56671;BME280;42545;50.054;8.306;2023-03-01T01:42:44;101032.09;;;-1.10;73.72
56671;BME280;42545;50.054;8.306;2023-03-01T01:45:30;101030.50;;;-1.08;73.76
56671;BME280;42545;50.054;8.306;2023-03-01T01:48:00;101028.81;;;-1.08;73.51
56671;BME280;42545;50.054;8.306;2023-03-01T01:50:30;101028.31;;;-1.04;73.35
56671;BME280;42545;50.054;8.306;2023-03-01T01:53:05;101035.16;;;-1.04;73.54
56671;BME280;42545;50.054;8.306;2023-03-01T01:55:33;101035.16;;;-1.04;73.54
56671;BME280;42545;50.054;8.306;2023-03-01T01:58:05;101039.56;;;-1.03;73.64
56671;BME280;42545;50.054;8.306;2023-03-01T02:00:34;101035.41;;;-1.01;73.49
56671;BME280;42545;50.054;8.306;2023-03-01T02:03:03;101042.41;;;-1.00;73.79
56671;BME280;42545;50.054;8.306;2023-03-01T02:05:36;101032.03;;;-1.00;73.38
56671;BME280;42545;50.054;8.306;2023-03-01T02:08:07;101037.22;;;-1.00;73.62
56671;BME280;42545;50.054;8.306;2023-03-01T02:10:34;101044.31;;;-0.98;73.69
56671;BME280;42545;50.054;8.306;2023-03-01T02:13:03;101040.94;;;-0.97;73.87
56671;BME280;42545;50.054;8.306;2023-03-01T02:15:32;101042.19;;;-0.91;73.61
56671;BME280;42545;50.054;8.306;2023-03-01T02:18:01;101038.94;;;-0.89;73.63
56671;BME280;42545;50.054;8.306;2023-03-01T02:20:34;101031.44;;;-0.86;73.28
56671;BME280;42545;50.054;8.306;2023-03-01T02:23:08;101033.22;;;-0.85;73.24
56671;BME280;42545;50.054;8.306;2023-03-01T02:25:41;101023.66;;;-0.86;73.39
56671;BME280;42545;50.054;8.306;2023-03-01T02:28:25;101034.59;;;-0.78;73.03
56671;BME280;42545;50.054;8.306;2023-03-01T02:30:53;101029.44;;;-0.78;72.97
56671;BME280;42545;50.054;8.306;2023-03-01T02:33:38;101032.22;;;-0.75;72.90
56671;BME280;42545;50.054;8.306;2023-03-01T02:36:09;101026.28;;;-0.74;72.72
56671;BME280;42545;50.054;8.306;2023-03-01T02:38:39;101022.91;;;-0.73;72.66
56671;BME280;42545;50.054;8.306;2023-03-01T02:41:07;101004.41;;;-0.78;72.88
56671;BME280;42545;50.054;8.306;2023-03-01T02:43:36;101014.22;;;-0.73;72.69
56671;BME280;42545;50.054;8.306;2023-03-01T02:46:05;101001.03;;;-0.76;72.56
56671;BME280;42545;50.054;8.306;2023-03-01T02:48:40;100995.94;;;-0.75;72.53
56671;BME280;42545;50.054;8.306;2023-03-01T02:51:21;100999.59;;;-0.73;72.44
56671;BME280;42545;50.054;8.306;2023-03-01T02:53:56;100992.47;;;-0.75;72.41
56671;BME280;42545;50.054;8.306;2023-03-01T02:56:25;100990.69;;;-0.76;72.44
56671;BME280;42545;50.054;8.306;2023-03-01T02:58:54;100989.63;;;-0.79;72.75
56671;BME280;42545;50.054;8.306;2023-03-01T03:01:26;100982.53;;;-0.81;72.63
56671;BME280;42545;50.054;8.306;2023-03-01T03:04:02;100976.34;;;-0.83;72.85
56671;BME280;42545;50.054;8.306;2023-03-01T03:06:29;100971.84;;;-0.86;72.60
56671;BME280;42545;50.054;8.306;2023-03-01T03:08:56;100984.88;;;-0.84;72.92
56671;BME280;42545;50.054;8.306;2023-03-01T03:11:23;100977.03;;;-0.86;72.80
56671;BME280;42545;50.054;8.306;2023-03-01T03:13:51;100976.91;;;-0.87;72.94
56671;BME280;42545;50.054;8.306;2023-03-01T03:16:20;100967.19;;;-0.90;72.82
56671;BME280;42545;50.054;8.306;2023-03-01T03:18:47;100968.63;;;-0.93;72.78
56671;BME280;42545;50.054;8.306;2023-03-01T03:21:14;100959.97;;;-0.94;73.16
56671;BME280;42545;50.054;8.306;2023-03-01T03:23:41;100963.56;;;-0.92;73.03
56671;BME280;42545;50.054;8.306;2023-03-01T03:26:08;100971.34;;;-0.92;73.34
56671;BME280;42545;50.054;8.306;2023-03-01T03:28:39;100962.56;;;-0.94;73.31
56671;BME280;42545;50.054;8.306;2023-03-01T03:31:07;100960.66;;;-0.97;73.51
56671;BME280;42545;50.054;8.306;2023-03-01T03:33:36;100961.41;;;-0.98;73.57
56671;BME280;42545;50.054;8.306;2023-03-01T03:36:03;100963.00;;;-1.00;73.40
56671;BME280;42545;50.054;8.306;2023-03-01T03:38:30;100953.31;;;-1.02;73.47
56671;BME280;42545;50.054;8.306;2023-03-01T03:41:03;100950.47;;;-1.05;73.46
56671;BME280;42545;50.054;8.306;2023-03-01T03:43:33;100954.97;;;-1.03;73.24
56671;BME280;42545;50.054;8.306;2023-03-01T03:46:00;100941.13;;;-1.03;73.23
56671;BME280;42545;50.054;8.306;2023-03-01T03:48:31;100943.97;;;-1.00;72.86
56671;BME280;42545;50.054;8.306;2023-03-01T03:50:59;100944.97;;;-0.98;72.79
56671;BME280;42545;50.054;8.306;2023-03-01T03:53:27;100936.31;;;-0.99;72.79
56671;BME280;42545;50.054;8.306;2023-03-01T03:55:55;100926.72;;;-1.00;73.07
56671;BME280;42545;50.054;8.306;2023-03-01T03:58:25;100928.19;;;-1.03;73.33
56671;BME280;42545;50.054;8.306;2023-03-01T04:00:53;100921.97;;;-1.05;73.57
56671;BME280;42545;50.054;8.306;2023-03-01T04:03:21;100930.31;;;-1.09;73.15
56671;BME280;42545;50.054;8.306;2023-03-01T04:05:49;100928.50;;;-1.10;73.36
56671;BME280;42545;50.054;8.306;2023-03-01T04:08:19;100936.00;;;-1.13;73.53
56671;BME280;42545;50.054;8.306;2023-03-01T04:10:49;100930.75;;;-1.15;73.64
56671;BME280;42545;50.054;8.306;2023-03-01T04:13:18;100928.69;;;-1.19;73.45
56671;BME280;42545;50.054;8.306;2023-03-01T04:15:46;100938.00;;;-1.21;73.96
56671;BME280;42545;50.054;8.306;2023-03-01T04:18:14;100934.66;;;-1.20;73.74
56671;BME280;42545;50.054;8.306;2023-03-01T04:20:41;100933.09;;;-1.18;73.41
56671;BME280;42545;50.054;8.306;2023-03-01T04:23:11;100933.41;;;-1.13;73.51
56671;BME280;42545;50.054;8.306;2023-03-01T04:25:46;100932.53;;;-1.14;73.32
56671;BME280;42545;50.054;8.306;2023-03-01T04:28:14;100930.75;;;-1.15;73.13
56671;BME280;42545;50.054;8.306;2023-03-01T04:30:41;100936.94;;;-1.13;73.17
56671;BME280;42545;50.054;8.306;2023-03-01T04:33:09;100930.63;;;-1.17;73.23
56671;BME280;42545;50.054;8.306;2023-03-01T04:35:37;100935.00;;;-1.16;73.35
56671;BME280;42545;50.054;8.306;2023-03-01T04:38:05;100934.09;;;-1.16;73.20
56671;BME280;42545;50.054;8.306;2023-03-01T04:40:33;100919.88;;;-1.21;73.26
56671;BME280;42545;50.054;8.306;2023-03-01T04:43:02;100938.25;;;-1.18;73.32
56671;BME280;42545;50.054;8.306;2023-03-01T04:45:32;100927.91;;;-1.18;73.36
56671;BME280;42545;50.054;8.306;2023-03-01T04:47:59;100922.59;;;-1.20;73.48
56671;BME280;42545;50.054;8.306;2023-03-01T04:50:26;100932.06;;;-1.20;73.28
56671;BME280;42545;50.054;8.306;2023-03-01T04:52:54;100932.84;;;-1.21;73.29
56671;BME280;42545;50.054;8.306;2023-03-01T04:55:24;100925.06;;;-1.21;73.41
56671;BME280;42545;50.054;8.306;2023-03-01T04:57:51;100920.69;;;-1.22;73.16
56671;BME280;42545;50.054;8.306;2023-03-01T05:00:20;100928.56;;;-1.21;73.29
56671;BME280;42545;50.054;8.306;2023-03-01T05:02:48;100925.63;;;-1.25;73.54
56671;BME280;42545;50.054;8.306;2023-03-01T05:05:19;100928.88;;;-1.28;73.93
56671;BME280;42545;50.054;8.306;2023-03-01T05:07:51;100931.88;;;-1.33;74.20
56671;BME280;42545;50.054;8.306;2023-03-01T05:10:18;100924.53;;;-1.39;74.41
56671;BME280;42545;50.054;8.306;2023-03-01T05:12:44;100929.38;;;-1.44;74.84
56671;BME280;42545;50.054;8.306;2023-03-01T05:15:12;100917.63;;;-1.50;75.25
56671;BME280;42545;50.054;8.306;2023-03-01T05:17:40;100924.38;;;-1.52;75.35
56671;BME280;42545;50.054;8.306;2023-03-01T05:20:08;100917.16;;;-1.57;75.83
56671;BME280;42545;50.054;8.306;2023-03-01T05:22:35;100914.06;;;-1.63;76.08
56671;BME280;42545;50.054;8.306;2023-03-01T05:25:03;100925.34;;;-1.62;75.68
56671;BME280;42545;50.054;8.306;2023-03-01T05:27:30;100920.06;;;-1.64;75.40
56671;BME280;42545;50.054;8.306;2023-03-01T05:29:56;100922.50;;;-1.65;76.24
56671;BME280;42545;50.054;8.306;2023-03-01T05:32:23;100917.09;;;-1.68;76.15
56671;BME280;42545;50.054;8.306;2023-03-01T05:34:52;100898.03;;;-1.81;76.31
56671;BME280;42545;50.054;8.306;2023-03-01T05:37:20;100916.63;;;-1.75;76.25
56671;BME280;42545;50.054;8.306;2023-03-01T05:39:47;100919.19;;;-1.75;76.37
56671;BME280;42545;50.054;8.306;2023-03-01T05:42:15;100910.41;;;-1.77;76.52
56671;BME280;42545;50.054;8.306;2023-03-01T05:44:42;100902.66;;;-1.77;76.77
56671;BME280;42545;50.054;8.306;2023-03-01T05:47:08;100912.94;;;-1.66;76.36
56671;BME280;42545;50.054;8.306;2023-03-01T05:49:35;100889.28;;;-1.71;76.33
56671;BME280;42545;50.054;8.306;2023-03-01T05:52:04;100909.75;;;-1.52;75.89
56671;BME280;42545;50.054;8.306;2023-03-01T05:54:30;100909.31;;;-1.46;75.66
56671;BME280;42545;50.054;8.306;2023-03-01T05:56:58;100899.59;;;-1.39;75.19
56671;BME280;42545;50.054;8.306;2023-03-01T05:59:26;100902.31;;;-1.25;74.52
56671;BME280;42545;50.054;8.306;2023-03-01T06:01:53;100892.97;;;-1.23;73.79
56671;BME280;42545;50.054;8.306;2023-03-01T06:04:20;100905.44;;;-1.07;73.38
56671;BME280;42545;50.054;8.306;2023-03-01T06:06:49;100902.41;;;-1.02;72.78
56671;BME280;42545;50.054;8.306;2023-03-01T06:09:17;100909.28;;;-0.90;72.26
56671;BME280;42545;50.054;8.306;2023-03-01T06:11:43;100903.22;;;-0.79;71.70
56671;BME280;42545;50.054;8.306;2023-03-01T06:14:12;100901.19;;;-0.71;71.03
56671;BME280;42545;50.054;8.306;2023-03-01T06:16:40;100906.06;;;-0.64;70.93
56671;BME280;42545;50.054;8.306;2023-03-01T06:19:07;100906.53;;;-0.58;70.05
56671;BME280;42545;50.054;8.306;2023-03-01T06:21:33;100906.97;;;-0.52;69.75
56671;BME280;42545;50.054;8.306;2023-03-01T06:24:00;100906.53;;;-0.46;69.63
56671;BME280;42545;50.054;8.306;2023-03-01T06:26:28;100907.88;;;-0.40;69.67
56671;BME280;42545;50.054;8.306;2023-03-01T06:28:55;100903.94;;;-0.34;69.08
56671;BME280;42545;50.054;8.306;2023-03-01T06:31:21;100902.69;;;-0.28;68.24
56671;BME280;42545;50.054;8.306;2023-03-01T06:33:48;100884.09;;;-0.34;68.18
56671;BME280;42545;50.054;8.306;2023-03-01T06:36:15;100905.16;;;-0.17;67.80
56671;BME280;42545;50.054;8.306;2023-03-01T06:38:43;100898.16;;;-0.18;67.27
56671;BME280;42545;50.054;8.306;2023-03-01T06:41:10;100894.09;;;-0.15;67.76
56671;BME280;42545;50.054;8.306;2023-03-01T06:43:38;100903.13;;;-0.10;67.44
56671;BME280;42545;50.054;8.306;2023-03-01T06:46:05;100897.94;;;-0.10;66.82
56671;BME280;42545;50.054;8.306;2023-03-01T06:48:32;100902.78;;;-0.03;67.08
56671;BME280;42545;50.054;8.306;2023-03-01T06:50:59;100901.00;;;-0.04;67.05
56671;BME280;42545;50.054;8.306;2023-03-01T06:53:27;100893.22;;;-0.04;66.94
56671;BME280;42545;50.054;8.306;2023-03-01T06:55:54;100894.09;;;-0.03;66.95
56671;BME280;42545;50.054;8.306;2023-03-01T06:58:21;100894.00;;;-0.05;67.09
56671;BME280;42545;50.054;8.306;2023-03-01T07:00:51;100901.88;;;-0.03;66.58
56671;BME280;42545;50.054;8.306;2023-03-01T07:03:18;100884.19;;;-0.09;66.96
56671;BME280;42545;50.054;8.306;2023-03-01T07:05:49;100884.38;;;-0.06;66.25
56671;BME280;42545;50.054;8.306;2023-03-01T07:08:17;100895.88;;;-0.02;66.58
56671;BME280;42545;50.054;8.306;2023-03-01T07:10:44;100900.31;;;-0.01;66.60
56671;BME280;42545;50.054;8.306;2023-03-01T07:13:12;100894.88;;;-0.04;66.82
56671;BME280;42545;50.054;8.306;2023-03-01T07:15:40;100902.22;;;0.02;66.32
56671;BME280;42545;50.054;8.306;2023-03-01T07:18:08;100903.22;;;0.04;65.73
56671;BME280;42545;50.054;8.306;2023-03-01T07:20:34;100901.09;;;0.10;66.48
56671;BME280;42545;50.054;8.306;2023-03-01T07:23:01;100902.19;;;0.13;66.05
56671;BME280;42545;50.054;8.306;2023-03-01T07:25:28;100906.03;;;0.18;66.07
56671;BME280;42545;50.054;8.306;2023-03-01T07:27:55;100901.03;;;0.22;65.64
56671;BME280;42545;50.054;8.306;2023-03-01T07:30:22;100900.56;;;0.27;65.74
56671;BME280;42545;50.054;8.306;2023-03-01T07:32:51;100894.81;;;0.31;65.37
56671;BME280;42545;50.054;8.306;2023-03-01T07:35:19;100891.06;;;0.40;65.23
56671;BME280;42545;50.054;8.306;2023-03-01T07:37:53;100889.81;;;0.46;64.83
56671;BME280;42545;50.054;8.306;2023-03-01T07:40:20;100887.84;;;0.55;64.45
56671;BME280;42545;50.054;8.306;2023-03-01T07:42:47;100881.47;;;0.64;64.69
56671;BME280;42545;50.054;8.306;2023-03-01T07:45:14;100884.72;;;0.73;64.06
56671;BME280;42545;50.054;8.306;2023-03-01T07:47:40;100872.38;;;0.82;64.46
56671;BME280;42545;50.054;8.306;2023-03-01T07:50:09;100880.59;;;1.02;63.49
56671;BME280;42545;50.054;8.306;2023-03-01T07:52:37;100875.66;;;1.18;62.97
56671;BME280;42545;50.054;8.306;2023-03-01T07:55:04;100876.38;;;1.29;61.30
56671;BME280;42545;50.054;8.306;2023-03-01T07:57:31;100883.50;;;1.45;61.28
56671;BME280;42545;50.054;8.306;2023-03-01T07:59:58;100881.38;;;1.52;61.06
56671;BME280;42545;50.054;8.306;2023-03-01T08:02:25;100875.59;;;1.70;61.17
56671;BME280;42545;50.054;8.306;2023-03-01T08:04:51;100884.91;;;1.80;59.95
56671;BME280;42545;50.054;8.306;2023-03-01T08:07:18;100874.59;;;1.81;59.81
56671;BME280;42545;50.054;8.306;2023-03-01T08:09:46;100877.47;;;1.86;60.08
56671;BME280;42545;50.054;8.306;2023-03-01T08:12:12;100880.50;;;1.92;60.31
56671;BME280;42545;50.054;8.306;2023-03-01T08:14:41;100870.88;;;1.91;59.13
56671;BME280;42545;50.054;8.306;2023-03-01T08:17:08;100867.38;;;1.90;58.79
56671;BME280;42545;50.054;8.306;2023-03-01T08:19:37;100879.56;;;1.91;58.68
56671;BME280;42545;50.054;8.306;2023-03-01T08:22:03;100861.75;;;1.84;59.57
56671;BME280;42545;50.054;8.306;2023-03-01T08:24:30;100871.44;;;2.00;59.19
56671;BME280;42545;50.054;8.306;2023-03-01T08:26:59;100880.47;;;2.05;59.15
56671;BME280;42545;50.054;8.306;2023-03-01T08:29:27;100867.66;;;2.08;58.43
56671;BME280;42545;50.054;8.306;2023-03-01T08:31:54;100868.53;;;2.09;58.25
56671;BME280;42545;50.054;8.306;2023-03-01T08:34:20;100816.94;;;1.88;58.44
56671;BME280;42545;50.054;8.306;2023-03-01T08:36:47;100852.19;;;2.25;57.95
56671;BME280;42545;50.054;8.306;2023-03-01T08:39:16;100865.25;;;2.40;57.41
56671;BME280;42545;50.054;8.306;2023-03-01T08:41:43;100872.22;;;2.54;57.50
56671;BME280;42545;50.054;8.306;2023-03-01T08:44:12;100859.91;;;2.66;57.23
56671;BME280;42545;50.054;8.306;2023-03-01T08:46:42;100846.47;;;2.74;56.77
56671;BME280;42545;50.054;8.306;2023-03-01T08:49:11;100848.03;;;2.85;56.60
56671;BME280;42545;50.054;8.306;2023-03-01T08:51:38;100846.22;;;2.84;55.68
56671;BME280;42545;50.054;8.306;2023-03-01T08:54:06;100843.06;;;2.89;56.78
56671;BME280;42545;50.054;8.306;2023-03-01T08:56:33;100843.63;;;2.99;56.95
56671;BME280;42545;50.054;8.306;2023-03-01T08:59:00;100838.78;;;3.05;56.02
56671;BME280;42545;50.054;8.306;2023-03-01T09:01:29;100833.72;;;3.08;56.08
56671;BME280;42545;50.054;8.306;2023-03-01T09:03:55;100836.97;;;3.19;55.42
56671;BME280;42545;50.054;8.306;2023-03-01T09:06:22;100822.31;;;3.21;56.39
56671;BME280;42545;50.054;8.306;2023-03-01T09:08:49;100829.22;;;3.35;54.60
56671;BME280;42545;50.054;8.306;2023-03-01T09:11:21;100827.50;;;3.36;55.01
56671;BME280;42545;50.054;8.306;2023-03-01T09:13:48;100824.44;;;3.43;55.09
56671;BME280;42545;50.054;8.306;2023-03-01T09:16:18;100826.91;;;3.40;55.07
56671;BME280;42545;50.054;8.306;2023-03-01T09:18:49;100820.13;;;3.58;55.21
56671;BME280;42545;50.054;8.306;2023-03-01T09:21:18;100817.41;;;3.57;53.87
56671;BME280;42545;50.054;8.306;2023-03-01T09:23:47;100825.34;;;3.58;53.49
56671;BME280;42545;50.054;8.306;2023-03-01T09:26:16;100822.63;;;3.57;53.80
56671;BME280;42545;50.054;8.306;2023-03-01T09:28:44;100821.34;;;3.65;53.56
56671;BME280;42545;50.054;8.306;2023-03-01T09:31:14;100820.59;;;3.82;53.44
56671;BME280;42545;50.054;8.306;2023-03-01T09:33:51;100806.56;;;3.80;53.53
56671;BME280;42545;50.054;8.306;2023-03-01T09:36:20;100818.66;;;3.95;53.09
56671;BME280;42545;50.054;8.306;2023-03-01T09:38:47;100809.78;;;4.08;53.12
56671;BME280;42545;50.054;8.306;2023-03-01T09:41:28;100807.69;;;4.33;53.12
56671;BME280;42545;50.054;8.306;2023-03-01T09:44:02;100801.13;;;4.41;51.45
56671;BME280;42545;50.054;8.306;2023-03-01T09:46:35;100796.25;;;4.48;51.43
56671;BME280;42545;50.054;8.306;2023-03-01T09:49:10;100786.69;;;4.48;51.24
56671;BME280;42545;50.054;8.306;2023-03-01T09:51:38;100794.09;;;4.73;51.31
56671;BME280;42545;50.054;8.306;2023-03-01T09:54:06;100799.47;;;4.93;51.22
56671;BME280;42545;50.054;8.306;2023-03-01T09:56:40;100793.56;;;4.97;50.00
56671;BME280;42545;50.054;8.306;2023-03-01T09:59:17;100785.06;;;5.19;50.66
56671;BME280;42545;50.054;8.306;2023-03-01T10:01:56;100792.53;;;5.29;48.60
56671;BME280;42545;50.054;8.306;2023-03-01T10:04:38;100791.41;;;5.60;48.63
56671;BME280;42545;50.054;8.306;2023-03-01T10:07:20;100787.75;;;5.56;47.80
56671;BME280;42545;50.054;8.306;2023-03-01T10:09:48;100783.72;;;5.45;48.33
56671;BME280;42545;50.054;8.306;2023-03-01T10:12:17;100779.38;;;5.64;48.37
56671;BME280;42545;50.054;8.306;2023-03-01T10:14:53;100780.50;;;5.69;48.08
56671;BME280;42545;50.054;8.306;2023-03-01T10:17:27;100780.50;;;5.69;49.17
56671;BME280;42545;50.054;8.306;2023-03-01T10:20:14;100779.50;;;6.03;48.44
56671;BME280;42545;50.054;8.306;2023-03-01T10:22:42;100776.69;;;6.18;47.29
56671;BME280;42545;50.054;8.306;2023-03-01T10:25:13;100773.44;;;6.43;46.59
56671;BME280;42545;50.054;8.306;2023-03-01T10:27:46;100767.66;;;6.50;46.47
56671;BME280;42545;50.054;8.306;2023-03-01T10:30:19;100767.25;;;6.81;46.55
56671;BME280;42545;50.054;8.306;2023-03-01T10:32:49;100766.16;;;6.97;45.45
56671;BME280;42545;50.054;8.306;2023-03-01T10:35:22;100761.19;;;7.03;44.90
56671;BME280;42545;50.054;8.306;2023-03-01T10:38:04;100756.19;;;7.09;45.71
56671;BME280;42545;50.054;8.306;2023-03-01T10:40:31;100757.34;;;6.95;45.13
56671;BME280;42545;50.054;8.306;2023-03-01T10:43:01;100761.22;;;6.84;44.82
56671;BME280;42545;50.054;8.306;2023-03-01T10:45:33;100751.53;;;6.81;46.03
56671;BME280;42545;50.054;8.306;2023-03-01T10:48:12;100741.88;;;6.61;45.77
56671;BME280;42545;50.054;8.306;2023-03-01T10:50:41;100740.31;;;6.85;45.17
56671;BME280;42545;50.054;8.306;2023-03-01T10:53:21;100742.06;;;6.85;46.16
56671;BME280;42545;50.054;8.306;2023-03-01T10:55:57;100734.56;;;6.94;45.81
56671;BME280;42545;50.054;8.306;2023-03-01T10:58:24;100738.84;;;6.71;45.57
56671;BME280;42545;50.054;8.306;2023-03-01T11:00:54;100732.78;;;6.72;46.02
56671;BME280;42545;50.054;8.306;2023-03-01T11:03:22;100727.97;;;6.83;45.93
56671;BME280;42545;50.054;8.306;2023-03-01T11:05:54;100715.56;;;7.00;45.98
56671;BME280;42545;50.054;8.306;2023-03-01T11:08:40;100722.34;;;7.16;45.50
56671;BME280;42545;50.054;8.306;2023-03-01T11:11:20;100713.47;;;7.13;43.92
56671;BME280;42545;50.054;8.306;2023-03-01T11:13:52;100703.97;;;7.16;44.80
56671;BME280;42545;50.054;8.306;2023-03-01T11:16:29;100705.94;;;7.00;44.60
56671;BME280;42545;50.054;8.306;2023-03-01T11:19:00;100713.59;;;6.94;44.40
56671;BME280;42545;50.054;8.306;2023-03-01T11:21:31;100700.75;;;6.81;44.28
56671;BME280;42545;50.054;8.306;2023-03-01T11:24:01;100693.41;;;6.93;44.69
56671;BME280;42545;50.054;8.306;2023-03-01T11:26:30;100690.06;;;6.97;44.21
56671;BME280;42545;50.054;8.306;2023-03-01T11:29:03;100691.75;;;6.95;44.25
56671;BME280;42545;50.054;8.306;2023-03-01T11:31:30;100684.53;;;6.89;45.09
56671;BME280;42545;50.054;8.306;2023-03-01T11:34:05;100685.59;;;6.95;45.20
56671;BME280;42545;50.054;8.306;2023-03-01T11:36:41;100689.25;;;7.19;44.11
56671;BME280;42545;50.054;8.306;2023-03-01T11:39:18;100681.59;;;7.03;44.03
56671;BME280;42545;50.054;8.306;2023-03-01T11:41:50;100681.75;;;7.07;44.14
56671;BME280;42545;50.054;8.306;2023-03-01T11:44:23;100677.16;;;7.24;43.84
56671;BME280;42545;50.054;8.306;2023-03-01T11:47:11;100675.25;;;7.43;44.05
56671;BME280;42545;50.054;8.306;2023-03-01T11:49:52;100676.28;;;7.46;43.08
56671;BME280;42545;50.054;8.306;2023-03-01T11:52:31;100667.06;;;7.56;43.32
56671;BME280;42545;50.054;8.306;2023-03-01T11:55:12;100654.66;;;7.52;42.32
56671;BME280;42545;50.054;8.306;2023-03-01T11:58:07;100653.19;;;7.60;42.67
56671;BME280;42545;50.054;8.306;2023-03-01T12:00:47;100646.72;;;7.50;41.68
56671;BME280;42545;50.054;8.306;2023-03-01T12:03:40;100637.09;;;7.51;41.98
56671;BME280;42545;50.054;8.306;2023-03-01T12:06:21;100626.38;;;7.69;42.03
56671;BME280;42545;50.054;8.306;2023-03-01T12:09:02;100636.69;;;7.87;42.34
56671;BME280;42545;50.054;8.306;2023-03-01T12:11:41;100626.78;;;8.04;41.60
56671;BME280;42545;50.054;8.306;2023-03-01T12:14:30;100619.84;;;8.32;41.12
56671;BME280;42545;50.054;8.306;2023-03-01T12:17:18;100608.16;;;8.48;39.77
56671;BME280;42545;50.054;8.306;2023-03-01T12:20:02;100615.25;;;8.50;38.73
56671;BME280;42545;50.054;8.306;2023-03-01T12:22:39;100611.97;;;8.57;39.11
56671;BME280;42545;50.054;8.306;2023-03-01T12:25:16;100596.75;;;8.47;39.43
56671;BME280;42545;50.054;8.306;2023-03-01T12:27:58;100589.53;;;8.67;39.42
56671;BME280;42545;50.054;8.306;2023-03-01T12:30:39;100600.97;;;8.42;38.91
56671;BME280;42545;50.054;8.306;2023-03-01T12:33:19;100591.81;;;8.32;38.39
56671;BME280;42545;50.054;8.306;2023-03-01T12:36:09;100588.53;;;8.39;38.44
56671;BME280;42545;50.054;8.306;2023-03-01T12:38:42;100596.50;;;8.41;38.65
56671;BME280;42545;50.054;8.306;2023-03-01T12:41:22;100585.25;;;8.45;38.46
56671;BME280;42545;50.054;8.306;2023-03-01T12:44:03;100574.91;;;8.50;37.81
56671;BME280;42545;50.054;8.306;2023-03-01T12:46:47;100575.59;;;8.44;38.48
56671;BME280;42545;50.054;8.306;2023-03-01T12:49:21;100569.91;;;8.57;39.00
56671;BME280;42545;50.054;8.306;2023-03-01T12:51:54;100571.44;;;8.51;37.85
56671;BME280;42545;50.054;8.306;2023-03-01T12:54:28;100569.53;;;8.46;38.59
56671;BME280;42545;50.054;8.306;2023-03-01T12:57:02;100550.84;;;8.39;38.42
56671;BME280;42545;50.054;8.306;2023-03-01T12:59:39;100548.56;;;8.48;38.99
56671;BME280;42545;50.054;8.306;2023-03-01T13:02:16;100531.53;;;8.64;39.50
56671;BME280;42545;50.054;8.306;2023-03-01T13:04:56;100527.41;;;8.72;39.46
56671;BME280;42545;50.054;8.306;2023-03-01T13:07:30;100534.47;;;8.73;38.01
56671;BME280;42545;50.054;8.306;2023-03-01T13:10:11;100531.59;;;8.65;38.47
56671;BME280;42545;50.054;8.306;2023-03-01T13:12:50;100527.06;;;8.61;38.18